Time;durP1;ratioP1;P1;durP2;ratioP2;P2;SDS_P1;SDS_P2;PMS_P1;PMS_P2;Temp;Humidity;BMP_temperature;BMP_pressure;BME280_temperature;BME280_humidity;BME280_pressure;Samples;Min_cycle;Max_cycle;Signal;HPM_P1;HPM_P2
2022/03/17 00:01:32;;;;;;;;;;;;;;;17.81;48.82;101844.63;6257138;22;19922;-78
2022/03/17 00:03:58;;;;;;;;;;;;;;;17.82;48.65;101845.53;6257817;22;20336;-78
2022/03/17 00:06:23;;;;;;;;;;;;;;;17.81;48.82;101842.03;6232646;22;19911;-78
2022/03/17 00:08:51;;;;;;;;;;;;;;;17.81;48.81;101842.03;6256974;22;19949;-78
2022/03/17 00:11:17;;;;;;;;;;;;;;;17.81;48.77;101839.41;6282750;22;19964;-78
2022/03/17 00:13:42;;;;;;;;;;;;;;;17.80;48.66;101845.47;6232567;22;19918;-78
2022/03/17 00:16:09;;;;;;;;;;;;;;;17.81;48.69;101836.81;6282435;22;19911;-78
2022/03/17 00:18:34;;;;;;;;;;;;;;;17.82;48.77;101837.72;6232883;22;19911;-78
2022/03/17 00:21:00;;;;;;;;;;;;;;;17.80;48.78;101832.44;6257138;22;19980;-78
2022/03/17 00:23:25;;;;;;;;;;;;;;;17.80;48.81;101831.59;6233577;22;19918;-78
2022/03/17 00:25:50;;;;;;;;;;;;;;;17.81;48.63;101830.72;6255929;22;19911;-78
2022/03/17 00:28:15;;;;;;;;;;;;;;;17.80;48.88;101840.25;6289819;22;20371;-78
2022/03/17 00:30:41;;;;;;;;;;;;;;;17.80;48.80;101835.06;6287304;22;19956;-78
2022/03/17 00:33:06;;;;;;;;;;;;;;;17.79;48.79;101841.13;6293249;22;19998;-78
2022/03/17 00:35:42;;;;;;;;;;;;;;;17.80;48.73;101848.06;6319206;22;19914;-77
2022/03/17 00:38:13;;;;;;;;;;;;;;;17.80;48.75;101849.81;6295548;22;19918;-77
2022/03/17 00:40:40;;;;;;;;;;;;;;;17.80;48.74;101850.69;6294081;22;19936;-78
2022/03/17 00:43:06;;;;;;;;;;;;;;;17.80;48.86;101852.41;6320576;22;20282;-78
2022/03/17 00:45:32;;;;;;;;;;;;;;;17.79;48.65;101851.56;6292250;22;19922;-78
2022/03/17 00:47:57;;;;;;;;;;;;;;;17.79;48.90;101848.94;6267029;22;19911;-78
2022/03/17 00:50:23;;;;;;;;;;;;;;;17.79;48.92;101840.25;6291796;22;19959;-78
2022/03/17 00:52:48;;;;;;;;;;;;;;;17.79;48.74;101843.75;6266663;22;19986;-79
2022/03/17 00:55:14;;;;;;;;;;;;;;;17.78;48.75;101836.78;6316794;22;19914;-78
2022/03/17 00:57:40;;;;;;;;;;;;;;;17.78;48.51;101844.59;6318862;22;19956;-78
2022/03/17 01:00:06;;;;;;;;;;;;;;;17.79;48.66;101846.34;6264854;22;19911;-78
2022/03/17 01:02:31;;;;;;;;;;;;;;;17.79;48.85;101850.66;6291181;22;19921;-78
2022/03/17 01:04:56;;;;;;;;;;;;;;;17.79;48.54;101848.06;6290427;22;19911;-78
2022/03/17 01:07:22;;;;;;;;;;;;;;;17.78;48.89;101849.78;6318092;22;19911;-78
2022/03/17 01:09:47;;;;;;;;;;;;;;;17.79;48.83;101853.25;6318089;22;20320;-78
2022/03/17 01:12:13;;;;;;;;;;;;;;;17.79;48.75;101853.25;6290273;22;19910;-78
2022/03/17 01:14:38;;;;;;;;;;;;;;;17.78;48.54;101844.59;6290189;22;20209;-78
2022/03/17 01:17:03;;;;;;;;;;;;;;;17.78;48.81;101851.53;6288875;22;19982;-78
2022/03/17 01:19:29;;;;;;;;;;;;;;;17.79;48.80;101853.25;6315141;22;19911;-78
2022/03/17 01:21:54;;;;;;;;;;;;;;;17.77;48.86;101850.69;6288003;22;19922;-77
2022/03/17 01:24:20;;;;;;;;;;;;;;;17.77;48.83;101855.88;6289739;22;19912;-78
2022/03/17 01:26:45;;;;;;;;;;;;;;;17.77;48.93;101850.69;6293321;22;19914;-77
2022/03/17 01:29:11;;;;;;;;;;;;;;;17.77;48.94;101848.06;6319490;22;19966;-78
2022/03/17 01:31:36;;;;;;;;;;;;;;;17.77;48.67;101850.69;6293325;22;19911;-78
2022/03/17 01:34:02;;;;;;;;;;;;;;;17.76;48.75;101851.50;6320087;22;19918;-77
2022/03/17 01:36:27;;;;;;;;;;;;;;;17.77;48.84;101860.19;6318392;22;19914;-78
2022/03/17 01:38:52;;;;;;;;;;;;;;;17.77;48.94;101860.19;6291052;22;19929;-78
2022/03/17 01:41:18;;;;;;;;;;;;;;;17.77;48.90;101862.78;6319738;22;19911;-78
2022/03/17 01:43:43;;;;;;;;;;;;;;;17.76;48.77;101859.31;6291661;22;19936;-77
2022/03/17 01:46:09;;;;;;;;;;;;;;;17.76;48.91;101861.94;6290760;22;19949;-78
2022/03/17 01:48:35;;;;;;;;;;;;;;;17.76;48.90;101868.88;6317270;22;19911;-78
2022/03/17 01:51:00;;;;;;;;;;;;;;;17.76;48.96;101872.34;6264510;22;19911;-78
2022/03/17 01:53:25;;;;;;;;;;;;;;;17.76;48.99;101874.94;6265117;22;19911;-78
2022/03/17 01:55:50;;;;;;;;;;;;;;;17.76;49.16;101882.75;6263816;22;19915;-78
2022/03/17 01:58:17;;;;;;;;;;;;;;;17.76;49.01;101890.56;6314342;22;19915;-78
2022/03/17 02:00:43;;;;;;;;;;;;;;;17.76;49.10;101905.31;6289401;22;19931;-78
2022/03/17 02:03:09;;;;;;;;;;;;;;;17.76;49.07;101902.72;6293109;22;19944;-78
2022/03/17 02:05:34;;;;;;;;;;;;;;;17.75;49.15;101912.28;6273091;22;19918;-78
2022/03/17 02:08:00;;;;;;;;;;;;;;;17.75;49.09;101917.47;6297756;22;19911;-78
2022/03/17 02:10:25;;;;;;;;;;;;;;;17.76;48.98;101936.56;6266803;22;20377;-78
2022/03/17 02:13:08;;;;;;;;;;;;;;;17.76;48.97;101963.47;6265028;22;19963;-78
2022/03/17 02:15:34;;;;;;;;;;;;;;;17.74;49.15;101964.31;6296925;22;19914;-78
2022/03/17 02:18:02;;;;;;;;;;;;;;;17.75;49.17;101963.47;6323129;22;20316;-78
2022/03/17 02:20:27;;;;;;;;;;;;;;;17.73;49.09;101968.66;6293236;22;19928;-78
2022/03/17 02:22:53;;;;;;;;;;;;;;;17.73;49.08;101962.59;6292545;22;19942;-78
2022/03/17 02:25:35;;;;;;;;;;;;;;;17.73;48.91;101970.41;6290548;22;19957;-78
2022/03/17 02:28:02;;;;;;;;;;;;;;;17.72;49.02;101982.53;6290967;22;19914;-78
2022/03/17 02:30:29;;;;;;;;;;;;;;;17.72;48.80;101982.53;6291583;22;19918;-78
2022/03/17 02:32:59;;;;;;;;;;;;;;;17.71;48.96;101972.97;6291306;22;19933;-78
2022/03/17 02:35:25;;;;;;;;;;;;;;;17.71;48.80;101972.97;6291247;22;19907;-78
2022/03/17 02:37:50;;;;;;;;;;;;;;;17.71;48.83;101978.19;6292256;22;19915;-78
2022/03/17 02:40:16;;;;;;;;;;;;;;;17.71;49.05;101982.53;6317412;22;20002;-78
2022/03/17 02:42:41;;;;;;;;;;;;;;;17.70;48.90;101986.84;6265915;22;19915;-78
2022/03/17 02:45:08;;;;;;;;;;;;;;;17.69;48.91;101991.19;6291311;22;19950;-78
2022/03/17 02:47:33;;;;;;;;;;;;;;;17.69;48.90;102003.34;6265780;22;19915;-78
2022/03/17 02:49:58;;;;;;;;;;;;;;;17.69;48.94;102003.34;6265574;22;19917;-78
2022/03/17 02:52:25;;;;;;;;;;;;;;;17.69;48.84;102018.97;6316619;22;19911;-78
2022/03/17 02:54:51;;;;;;;;;;;;;;;17.68;48.83;102025.91;6291010;22;20227;-78
2022/03/17 02:57:16;;;;;;;;;;;;;;;17.68;48.85;102030.22;6291687;22;19907;-78
2022/03/17 02:59:42;;;;;;;;;;;;;;;17.67;48.77;102023.28;6318328;22;19911;-79
2022/03/17 03:02:07;;;;;;;;;;;;;;;17.68;48.84;102043.22;6289553;22;19992;-78
2022/03/17 03:04:36;;;;;;;;;;;;;;;17.67;49.05;102047.56;6290523;22;19907;-78
2022/03/17 03:07:06;;;;;;;;;;;;;;;17.67;48.84;102057.13;6264931;22;20290;-78
2022/03/17 03:09:31;;;;;;;;;;;;;;;17.67;48.96;102055.38;6289560;22;19908;-78
2022/03/17 03:11:57;;;;;;;;;;;;;;;17.66;48.84;102069.28;6263837;22;19957;-78
2022/03/17 03:14:22;;;;;;;;;;;;;;;17.66;48.81;102066.66;6289112;22;19929;-78
2022/03/17 03:16:48;;;;;;;;;;;;;;;17.66;48.89;102071.88;6289109;22;19961;-78
2022/03/17 03:19:13;;;;;;;;;;;;;;;17.66;48.77;102078.81;6315067;22;19911;-78
2022/03/17 03:21:38;;;;;;;;;;;;;;;17.65;48.91;102083.13;6263181;22;19922;-79
2022/03/17 03:24:04;;;;;;;;;;;;;;;17.65;48.92;102092.69;6262967;22;19933;-78
2022/03/17 03:26:30;;;;;;;;;;;;;;;17.65;48.62;102103.09;6314799;22;20231;-78
2022/03/17 03:28:55;;;;;;;;;;;;;;;17.65;48.86;102106.56;6313572;22;20044;-78
2022/03/17 03:31:21;;;;;;;;;;;;;;;17.64;48.91;102099.63;6289316;22;19946;-78
2022/03/17 03:33:46;;;;;;;;;;;;;;;17.64;48.82;102103.97;6316581;22;19906;-78
2022/03/17 03:38:56;;;;;;;;;;;;;;;17.65;48.78;102131.72;6291684;22;19917;-78
2022/03/17 03:41:22;;;;;;;;;;;;;;;17.62;48.67;102129.97;6286956;22;19992;-78
2022/03/17 03:43:47;;;;;;;;;;;;;;;17.64;48.82;102150.81;6313038;22;19911;-78
2022/03/17 03:46:12;;;;;;;;;;;;;;;17.63;48.84;102147.31;6261599;22;19935;-78
2022/03/17 03:48:38;;;;;;;;;;;;;;;17.64;48.74;102151.69;6262102;22;19934;-78
2022/03/17 03:51:04;;;;;;;;;;;;;;;17.63;48.83;102169.88;6263633;22;19911;-78
2022/03/17 03:54:12;;;;;;;;;;;;;;;17.63;48.68;102172.47;6262336;22;19910;-78
2022/03/17 03:56:14;;;;;;;;;;;;;;;17.62;48.55;102170.75;6292753;22;19960;-78
2022/03/17 03:58:40;;;;;;;;;;;;;;;17.62;48.71;102176.81;6312541;22;19911;-78
2022/03/17 04:01:05;;;;;;;;;;;;;;;17.61;48.63;102184.59;6262436;22;19915;-78
2022/03/17 04:03:30;;;;;;;;;;;;;;;17.61;48.61;102182.00;6289640;22;19918;-78
2022/03/17 04:05:55;;;;;;;;;;;;;;;17.60;48.79;102191.53;6264456;22;19917;-78
2022/03/17 04:08:20;;;;;;;;;;;;;;;17.61;48.47;102197.63;6263790;22;19922;-78
2022/03/17 04:10:46;;;;;;;;;;;;;;;17.61;48.33;102210.63;6315233;22;19911;-78
2022/03/17 04:13:11;;;;;;;;;;;;;;;17.60;48.58;102222.78;6262570;22;19932;-78
2022/03/17 04:15:36;;;;;;;;;;;;;;;17.60;48.71;102220.19;6261701;22;19933;-78
2022/03/17 04:18:01;;;;;;;;;;;;;;;17.60;48.42;102234.94;6261310;22;20346;-78
2022/03/17 04:20:27;;;;;;;;;;;;;;;17.59;48.62;102234.03;6287424;22;20288;-78
2022/03/17 04:22:52;;;;;;;;;;;;;;;17.60;48.59;102250.56;6261145;22;20366;-78
2022/03/17 04:25:17;;;;;;;;;;;;;;;17.58;48.54;102258.34;6264318;22;19915;-78
2022/03/17 04:27:43;;;;;;;;;;;;;;;17.59;48.66;102269.59;6292625;22;19914;-78
2022/03/17 04:30:08;;;;;;;;;;;;;;;17.60;48.42;102271.38;6268651;22;19918;-78
2022/03/17 04:32:33;;;;;;;;;;;;;;;17.59;48.60;102277.41;6311607;22;20243;-78
2022/03/17 04:34:59;;;;;;;;;;;;;;;17.58;48.56;102286.97;6292263;22;19910;-78
2022/03/17 04:37:24;;;;;;;;;;;;;;;17.59;48.42;102298.25;6306511;22;19918;-78
2022/03/17 04:39:49;;;;;;;;;;;;;;;17.57;48.64;102300.84;6292063;22;19918;-78
2022/03/17 04:42:15;;;;;;;;;;;;;;;17.57;48.50;102310.34;6303448;22;19915;-78
2022/03/17 04:44:40;;;;;;;;;;;;;;;17.57;48.42;102319.06;6285017;22;20320;-78
2022/03/17 04:47:05;;;;;;;;;;;;;;;17.57;48.61;102328.56;6262663;22;19918;-78
2022/03/17 04:49:31;;;;;;;;;;;;;;;17.58;48.59;102343.38;6305960;22;19918;-78
2022/03/17 04:51:56;;;;;;;;;;;;;;;17.56;48.49;102345.94;6290514;22;19911;-78
2022/03/17 04:54:21;;;;;;;;;;;;;;;17.57;48.31;102360.72;6304028;22;19922;-78
2022/03/17 04:56:47;;;;;;;;;;;;;;;17.54;48.60;102358.06;6290071;22;19911;-78
2022/03/17 04:59:12;;;;;;;;;;;;;;;17.57;48.36;102362.41;6259386;22;20252;-78
2022/03/17 05:01:38;;;;;;;;;;;;;;;17.56;48.58;102363.28;6290490;22;19918;-78
2022/03/17 05:04:04;;;;;;;;;;;;;;;17.55;48.47;102379.75;6287037;22;19934;-78
2022/03/17 05:06:29;;;;;;;;;;;;;;;17.56;48.43;102387.56;6315621;22;19914;-79
2022/03/17 05:08:54;;;;;;;;;;;;;;;17.56;48.38;102398.00;6312634;22;20285;-78
2022/03/17 05:11:20;;;;;;;;;;;;;;;17.56;48.41;102399.72;6302469;22;19911;-78
2022/03/17 05:13:46;;;;;;;;;;;;;;;17.54;48.31;102402.28;6315910;22;20266;-78
2022/03/17 05:16:13;;;;;;;;;;;;;;;17.55;48.35;102416.19;6315502;22;20319;-78
2022/03/17 05:18:38;;;;;;;;;;;;;;;17.55;48.31;102418.78;6279948;22;19993;-78
2022/03/17 05:21:04;;;;;;;;;;;;;;;17.55;48.25;102426.59;6286085;22;19963;-78
2022/03/17 05:23:31;;;;;;;;;;;;;;;17.54;48.37;102424.84;6304183;22;19968;-78
2022/03/17 05:25:57;;;;;;;;;;;;;;;17.53;48.24;102434.41;6288057;22;19961;-78
2022/03/17 05:28:22;;;;;;;;;;;;;;;17.53;48.39;102444.81;6286186;22;19932;-80
2022/03/17 05:30:55;;;;;;;;;;;;;;;17.52;48.32;102439.56;6287509;22;19984;-81
2022/03/17 05:33:21;;;;;;;;;;;;;;;17.52;48.31;102456.06;6312627;22;19907;-79
2022/03/17 05:35:56;;;;;;;;;;;;;;;17.52;48.10;102463.88;6292435;22;20296;-80
2022/03/17 05:38:21;;;;;;;;;;;;;;;17.51;48.31;102469.94;6321592;22;19951;-80
2022/03/17 05:40:53;;;;;;;;;;;;;;;17.52;48.28;102469.06;6321433;22;20239;-81
2022/03/17 05:46:58;;;;;;;;;;;;;;;17.53;48.08;102488.16;6329420;22;19917;-82
2022/03/17 05:49:57;;;;;;;;;;;;;;;17.52;48.30;102497.69;6224200;23;19907;-81
2022/03/17 05:52:29;;;;;;;;;;;;;;;17.52;48.03;102502.03;6233527;23;19919;-82
2022/03/17 05:54:57;;;;;;;;;;;;;;;17.52;48.03;102504.63;6229957;23;19915;-81
2022/03/17 06:08:34;;;;;;;;;;;;;;;17.51;48.21;102542.81;6334931;22;19929;-82
2022/03/17 06:11:22;;;;;;;;;;;;;;;17.51;48.40;102547.13;6308926;22;19899;-83
2022/03/17 06:14:27;;;;;;;;;;;;;;;17.50;48.56;102567.06;6269901;22;19915;-82
2022/03/17 06:16:53;;;;;;;;;;;;;;;17.56;48.51;102576.72;6265360;23;19914;-79
2022/03/17 06:19:18;;;;;;;;;;;;;;;17.63;48.90;102581.19;6252632;23;19916;-78
2022/03/17 06:21:43;;;;;;;;;;;;;;;17.67;49.01;102586.47;6204582;23;19912;-78
2022/03/17 06:24:08;;;;;;;;;;;;;;;17.71;48.88;102591.75;6232974;23;19922;-77
2022/03/17 06:26:34;;;;;;;;;;;;;;;17.81;49.03;102598.84;6232912;23;19947;-78
2022/03/17 06:28:59;;;;;;;;;;;;;;;17.81;49.29;102610.19;6255787;23;19907;-77
2022/03/17 06:31:24;;;;;;;;;;;;;;;17.82;49.43;102614.56;6228599;23;19912;-79
2022/03/17 06:33:50;;;;;;;;;;;;;;;17.83;49.31;102613.72;6229906;23;19962;-78
2022/03/17 06:36:15;;;;;;;;;;;;;;;17.85;49.44;102621.53;6226731;23;19912;-78
2022/03/17 06:38:40;;;;;;;;;;;;;;;17.85;49.41;102634.56;6255141;23;19942;-81
2022/03/17 06:41:05;;;;;;;;;;;;;;;17.85;49.40;102640.63;6228451;23;19915;-80
2022/03/17 06:43:31;;;;;;;;;;;;;;;17.84;49.37;102649.31;6226987;23;19918;-78
2022/03/17 06:45:56;;;;;;;;;;;;;;;17.83;49.47;102647.59;6258313;22;19915;-79
2022/03/17 06:48:21;;;;;;;;;;;;;;;17.84;49.43;102656.25;6262805;22;19911;-78
2022/03/17 06:50:47;;;;;;;;;;;;;;;17.86;49.58;102665.84;6262908;22;19918;-77
2022/03/17 06:53:12;;;;;;;;;;;;;;;17.87;49.62;102671.94;6263050;22;19918;-80
2022/03/17 06:55:37;;;;;;;;;;;;;;;17.87;49.62;102669.31;6288306;22;19954;-78
2022/03/17 06:58:02;;;;;;;;;;;;;;;17.85;49.60;102676.22;6287630;22;19911;-77
2022/03/17 07:00:28;;;;;;;;;;;;;;;17.83;49.64;102683.13;6286954;22;19911;-78
2022/03/17 07:02:53;;;;;;;;;;;;;;;17.83;49.53;102690.94;6262391;22;19934;-79
2022/03/17 07:05:19;;;;;;;;;;;;;;;17.84;49.47;102693.59;6287084;22;19942;-80
2022/03/17 07:07:45;;;;;;;;;;;;;;;17.86;49.58;102702.31;6265932;22;19911;-78
2022/03/17 07:10:11;;;;;;;;;;;;;;;17.88;49.36;102703.22;6263327;22;20002;-78
2022/03/17 07:12:37;;;;;;;;;;;;;;;17.86;49.53;102717.06;6288761;22;19907;-77
2022/03/17 07:15:03;;;;;;;;;;;;;;;17.84;49.38;102701.41;6289459;22;19922;-79
2022/03/17 07:17:34;;;;;;;;;;;;;;;17.84;49.43;102716.16;6288859;22;19929;-78
2022/03/17 07:20:03;;;;;;;;;;;;;;;17.88;49.16;102731.00;6288382;22;19933;-78
2022/03/17 07:22:28;;;;;;;;;;;;;;;17.93;49.15;102728.47;6288138;22;20323;-78
2022/03/17 07:24:54;;;;;;;;;;;;;;;17.89;48.99;102732.75;6263176;22;19917;-78
2022/03/17 07:27:21;;;;;;;;;;;;;;;17.87;49.14;102734.44;6288703;22;19978;-78
2022/03/17 07:29:46;;;;;;;;;;;;;;;17.90;49.05;102744.94;6316814;22;19914;-78
2022/03/17 07:32:11;;;;;;;;;;;;;;;18.00;48.64;102752.06;6290177;22;19911;-78
2022/03/17 07:34:37;;;;;;;;;;;;;;;17.92;48.96;102752.75;6264314;22;20238;-78
2022/03/17 07:37:02;;;;;;;;;;;;;;;17.90;48.95;102760.56;6290209;22;19911;-78
2022/03/17 07:39:27;;;;;;;;;;;;;;;17.93;48.85;102768.44;6264150;22;19916;-78
2022/03/17 07:41:52;;;;;;;;;;;;;;;17.89;48.66;102762.25;6289588;22;19915;-78
2022/03/17 07:44:18;;;;;;;;;;;;;;;17.86;48.97;102774.38;6288941;22;19917;-78
2022/03/17 07:46:43;;;;;;;;;;;;;;;17.83;48.88;102777.78;6289288;22;19918;-78
2022/03/17 07:49:08;;;;;;;;;;;;;;;17.82;48.99;102776.03;6288816;22;20346;-78
2022/03/17 07:51:34;;;;;;;;;;;;;;;17.83;49.02;102780.41;6287599;22;19907;-78
2022/03/17 07:53:59;;;;;;;;;;;;;;;17.86;48.79;102788.25;6263069;22;19911;-78
2022/03/17 07:56:24;;;;;;;;;;;;;;;17.90;48.67;102789.22;6288596;22;19946;-78
2022/03/17 07:58:50;;;;;;;;;;;;;;;18.00;48.36;102791.13;6265627;22;20310;-78
2022/03/17 08:01:17;;;;;;;;;;;;;;;18.31;47.73;102799.53;6315116;22;19918;-78
2022/03/17 08:03:43;;;;;;;;;;;;;;;18.58;46.98;102809.59;6262593;22;19926;-78
2022/03/17 08:06:09;;;;;;;;;;;;;;;19.45;44.83;102799.69;6261413;22;19911;-78
2022/03/17 08:08:35;;;;;;;;;;;;;;;19.41;44.80;102808.34;6260941;22;19968;-78
2022/03/17 08:11:01;;;;;;;;;;;;;;;18.68;46.86;102823.66;6313031;22;19952;-78
2022/03/17 08:13:27;;;;;;;;;;;;;;;18.43;47.44;102835.41;6261773;22;19919;-77
2022/03/17 08:15:53;;;;;;;;;;;;;;;18.43;47.25;102831.06;6260485;22;19951;-78
2022/03/17 08:18:18;;;;;;;;;;;;;;;18.55;47.06;102842.56;6261352;22;19911;-78
2022/03/17 08:20:43;;;;;;;;;;;;;;;18.60;46.81;102844.41;6261664;22;19910;-78
2022/03/17 08:23:09;;;;;;;;;;;;;;;18.43;47.29;102840.59;6259307;22;20390;-78
2022/03/17 08:25:35;;;;;;;;;;;;;;;18.43;47.27;102849.31;6284791;22;19906;-78
2022/03/17 08:28:03;;;;;;;;;;;;;;;18.41;47.17;102860.56;6313589;22;19981;-78
2022/03/17 08:30:37;;;;;;;;;;;;;;;18.77;46.37;102856.84;6286403;22;19907;-78
2022/03/17 08:33:03;;;;;;;;;;;;;;;18.86;46.17;102870.97;6285051;22;19952;-78
2022/03/17 08:35:28;;;;;;;;;;;;;;;18.92;45.96;102885.84;6284806;22;19907;-78
2022/03/17 08:37:53;;;;;;;;;;;;;;;18.90;46.20;102885.84;6258335;22;20312;-78
2022/03/17 08:40:19;;;;;;;;;;;;;;;18.81;46.54;102883.03;6284653;22;19942;-78
2022/03/17 08:42:45;;;;;;;;;;;;;;;18.81;46.18;102892.59;6259428;22;19922;-78
2022/03/17 08:50:39;;;;;;;;;;;;;;;18.70;46.55;102916.75;6290851;22;19918;-78
2022/03/17 08:53:04;;;;;;;;;;;;;;;18.73;46.46;102915.91;6286737;22;19907;-78
2022/03/17 08:55:29;;;;;;;;;;;;;;;18.71;46.64;102917.63;6261159;22;19911;-78
2022/03/17 08:57:56;;;;;;;;;;;;;;;18.69;46.71;102928.03;6286749;22;19930;-78
2022/03/17 09:00:22;;;;;;;;;;;;;;;18.68;46.87;102922.75;6260547;22;20327;-78
2022/03/17 09:02:48;;;;;;;;;;;;;;;18.57;47.01;102932.97;6264711;22;19917;-78
2022/03/17 09:05:14;;;;;;;;;;;;;;;18.61;47.04;102934.81;6262706;22;19911;-78
2022/03/17 09:07:40;;;;;;;;;;;;;;;18.66;46.65;102946.22;6260432;22;19988;-78
2022/03/17 09:10:05;;;;;;;;;;;;;;;18.62;47.04;102949.63;6259610;22;19911;-78
2022/03/17 09:12:35;;;;;;;;;;;;;;;18.58;46.99;102960.84;6285608;22;19938;-78
2022/03/17 09:15:00;;;;;;;;;;;;;;;18.60;46.96;102961.75;6286175;22;19918;-78
2022/03/17 09:17:25;;;;;;;;;;;;;;;18.63;46.76;102969.63;6261620;22;19911;-78
2022/03/17 09:19:51;;;;;;;;;;;;;;;18.61;46.89;102973.91;6261567;22;19915;-78
2022/03/17 09:22:16;;;;;;;;;;;;;;;18.60;46.92;102979.13;6262006;22;19915;-78
2022/03/17 09:24:41;;;;;;;;;;;;;;;18.55;46.89;102980.75;6287672;22;19907;-78
2022/03/17 09:27:07;;;;;;;;;;;;;;;18.52;46.98;102978.97;6287957;22;19914;-77
2022/03/17 09:29:32;;;;;;;;;;;;;;;18.52;47.14;102998.94;6287878;22;20041;-77
2022/03/17 09:31:58;;;;;;;;;;;;;;;18.48;47.09;102990.16;6262189;22;19918;-77
2022/03/17 09:34:24;;;;;;;;;;;;;;;18.45;47.17;102982.28;6287208;22;19929;-78
2022/03/17 09:36:49;;;;;;;;;;;;;;;18.44;47.23;102991.84;6259312;22;19937;-78
2022/03/17 09:41:58;;;;;;;;;;;;;;;18.48;46.55;102995.38;6288928;22;19942;-77
2022/03/17 09:44:24;;;;;;;;;;;;;;;18.45;46.63;103008.38;6258874;22;19911;-77
2022/03/17 09:46:50;;;;;;;;;;;;;;;18.52;46.58;103015.47;6285807;22;19918;-77
2022/03/17 09:49:16;;;;;;;;;;;;;;;18.55;46.43;103014.63;6284957;22;19981;-77
2022/03/17 09:51:42;;;;;;;;;;;;;;;18.53;46.72;103016.34;6285466;22;19914;-77
2022/03/17 09:54:08;;;;;;;;;;;;;;;18.46;46.66;103025.75;6284427;22;19907;-77
2022/03/17 09:56:33;;;;;;;;;;;;;;;18.44;46.66;103027.44;6259124;22;19918;-78
2022/03/17 09:59:00;;;;;;;;;;;;;;;18.47;46.62;103035.34;6259670;22;20349;-77
2022/03/17 10:01:28;;;;;;;;;;;;;;;18.42;46.67;103043.06;6260012;22;19918;-77
2022/03/17 10:04:00;;;;;;;;;;;;;;;18.43;46.88;103055.25;6261857;22;19923;-77
2022/03/17 10:06:25;;;;;;;;;;;;;;;18.43;46.49;103059.59;6312218;22;19907;-78
2022/03/17 10:08:51;;;;;;;;;;;;;;;18.44;46.52;103048.31;6283268;22;20385;-77
2022/03/17 10:11:23;;;;;;;;;;;;;;;18.46;46.42;103057.91;6257520;22;19974;-77
2022/03/17 10:13:48;;;;;;;;;;;;;;;18.43;46.82;103065.69;6310783;22;19907;-77
2022/03/17 10:16:18;;;;;;;;;;;;;;;18.44;46.54;103069.16;6257452;22;19918;-77
2022/03/17 10:18:45;;;;;;;;;;;;;;;18.42;46.53;103078.66;6310609;22;19911;-77
2022/03/17 10:21:24;;;;;;;;;;;;;;;18.42;46.41;103083.88;6292259;22;19968;-78
2022/03/17 10:23:59;;;;;;;;;;;;;;;18.40;46.78;103098.59;6294098;22;19928;-78
2022/03/17 10:26:36;;;;;;;;;;;;;;;18.39;46.48;103105.56;6318224;22;20040;-78
2022/03/17 10:29:22;;;;;;;;;;;;;;;18.43;46.41;103109.13;6320411;22;19914;-78
2022/03/17 10:31:55;;;;;;;;;;;;;;;18.47;46.29;103119.66;6295046;22;19907;-78
2022/03/17 10:34:21;;;;;;;;;;;;;;;18.50;46.27;103113.63;6297356;22;19907;-78
2022/03/17 10:36:47;;;;;;;;;;;;;;;18.53;46.27;103136.28;6267634;22;19911;-77
2022/03/17 10:39:13;;;;;;;;;;;;;;;18.52;46.28;103135.41;6292640;22;20022;-77
2022/03/17 10:41:45;;;;;;;;;;;;;;;18.49;46.44;103145.78;6264207;22;19911;-78
2022/03/17 10:44:12;;;;;;;;;;;;;;;18.50;46.50;103152.72;6317828;22;19907;-78
2022/03/17 10:46:37;;;;;;;;;;;;;;;18.49;46.45;103161.41;6291096;22;19912;-77
2022/03/17 10:49:07;;;;;;;;;;;;;;;18.49;46.51;103164.03;6265522;22;19998;-77
2022/03/17 10:51:42;;;;;;;;;;;;;;;18.51;46.53;103170.16;6290368;22;20330;-77
2022/03/17 10:54:08;;;;;;;;;;;;;;;18.52;46.53;103176.25;6290390;22;19972;-77
2022/03/17 10:56:37;;;;;;;;;;;;;;;18.50;46.63;103179.69;6288753;22;20352;-78
2022/03/17 10:59:03;;;;;;;;;;;;;;;18.49;46.52;103184.88;6287767;22;19938;-78
2022/03/17 11:01:35;;;;;;;;;;;;;;;18.48;46.53;103185.72;6258850;22;19911;-78
2022/03/17 11:04:01;;;;;;;;;;;;;;;18.46;46.50;103195.22;6260845;22;20327;-78
2022/03/17 11:06:27;;;;;;;;;;;;;;;18.48;46.54;103193.53;6288776;22;19918;-78
2022/03/17 11:08:53;;;;;;;;;;;;;;;18.44;46.44;103187.38;6284844;22;19915;-78
2022/03/17 11:11:19;;;;;;;;;;;;;;;18.43;46.58;103195.16;6284861;22;19915;-78
2022/03/17 11:13:44;;;;;;;;;;;;;;;18.45;46.55;103207.38;6314008;22;19911;-78
2022/03/17 11:16:11;;;;;;;;;;;;;;;18.42;46.42;103207.31;6286607;22;19907;-78
2022/03/17 11:18:37;;;;;;;;;;;;;;;18.40;46.46;103206.41;6288708;22;19907;-78
2022/03/17 11:21:26;;;;;;;;;;;;;;;18.40;46.53;103214.22;6288790;22;19907;-78
2022/03/17 11:23:59;;;;;;;;;;;;;;;18.44;46.40;103215.16;6287489;22;19911;-78
2022/03/17 11:26:44;;;;;;;;;;;;;;;18.43;46.45;103216.00;6285561;22;19914;-78
2022/03/17 11:29:10;;;;;;;;;;;;;;;18.43;46.50;103221.22;6287328;22;19910;-78
2022/03/17 11:31:50;;;;;;;;;;;;;;;18.42;46.44;103228.19;6261253;22;19911;-78
2022/03/17 11:34:38;;;;;;;;;;;;;;;18.45;46.48;103224.75;6287563;22;19909;-77
2022/03/17 11:37:18;;;;;;;;;;;;;;;18.45;46.38;103224.75;6287417;22;20243;-78
2022/03/17 11:40:08;;;;;;;;;;;;;;;18.47;46.26;103226.56;6286596;22;20247;-78
2022/03/17 11:42:38;;;;;;;;;;;;;;;18.49;46.36;103234.41;6299621;22;19907;-78
2022/03/17 11:45:12;;;;;;;;;;;;;;;18.46;46.35;103234.31;6287352;22;20235;-78
2022/03/17 11:47:42;;;;;;;;;;;;;;;18.45;46.38;103237.78;6288657;22;19907;-78
2022/03/17 11:50:23;;;;;;;;;;;;;;;18.47;46.19;103242.19;6316112;22;19907;-78
2022/03/17 11:52:52;;;;;;;;;;;;;;;18.48;46.47;103246.56;6288765;22;19907;-78
2022/03/17 11:55:33;;;;;;;;;;;;;;;18.47;46.52;103252.63;6287156;22;19930;-78
2022/03/17 11:58:17;;;;;;;;;;;;;;;18.46;46.31;103250.84;6287558;22;19907;-78
2022/03/17 12:00:53;;;;;;;;;;;;;;;18.44;46.44;103246.44;6286544;22;20037;-78
2022/03/17 12:03:31;;;;;;;;;;;;;;;18.45;46.38;103251.69;6313405;22;19915;-78
2022/03/17 12:06:03;;;;;;;;;;;;;;;18.44;46.42;103249.94;6287056;22;19945;-78
2022/03/17 12:08:39;;;;;;;;;;;;;;;18.43;46.63;103247.28;6285810;22;19933;-78
2022/03/17 12:11:08;;;;;;;;;;;;;;;18.41;46.54;103251.59;6286102;22;19942;-78
2022/03/17 12:13:35;;;;;;;;;;;;;;;18.41;46.69;103254.19;6259875;22;19911;-78
2022/03/17 12:16:01;;;;;;;;;;;;;;;18.44;46.69;103255.16;6261626;22;19993;-78
2022/03/17 12:18:28;;;;;;;;;;;;;;;18.45;46.38;103261.25;6285432;22;19910;-78
2022/03/17 12:20:53;;;;;;;;;;;;;;;18.43;46.55;103262.94;6286520;22;19910;-78
2022/03/17 12:23:37;;;;;;;;;;;;;;;18.42;46.64;103263.75;6314965;22;19914;-78
2022/03/17 12:26:03;;;;;;;;;;;;;;;18.41;46.71;103264.63;6287413;22;19907;-77
2022/03/17 12:28:30;;;;;;;;;;;;;;;18.41;46.66;103257.69;6288110;22;19907;-78
2022/03/17 12:30:55;;;;;;;;;;;;;;;18.41;46.77;103267.22;6286112;22;19988;-78
2022/03/17 12:33:20;;;;;;;;;;;;;;;18.41;46.76;103275.06;6260908;22;19915;-77
2022/03/17 12:35:48;;;;;;;;;;;;;;;18.41;46.51;103277.66;6286610;22;19914;-78
2022/03/17 12:38:18;;;;;;;;;;;;;;;18.41;46.51;103275.06;6261802;22;19911;-77
2022/03/17 12:40:44;;;;;;;;;;;;;;;18.40;46.54;103273.28;6285477;22;20072;-78
2022/03/17 12:43:11;;;;;;;;;;;;;;;18.40;46.67;103276.78;6312340;22;19914;-78
2022/03/17 12:45:36;;;;;;;;;;;;;;;18.42;46.78;103275.09;6312612;22;19921;-77
2022/03/17 12:48:02;;;;;;;;;;;;;;;18.42;46.73;103274.19;6285020;22;19910;-78
2022/03/17 12:50:28;;;;;;;;;;;;;;;18.41;46.50;103282.88;6258370;22;19912;-78
2022/03/17 12:52:53;;;;;;;;;;;;;;;18.42;46.60;103285.53;6259795;22;19911;-78
2022/03/17 12:55:19;;;;;;;;;;;;;;;18.42;46.66;103280.31;6258912;22;19911;-77
2022/03/17 12:57:46;;;;;;;;;;;;;;;18.43;46.56;103286.41;6283926;22;20079;-77
2022/03/17 13:00:13;;;;;;;;;;;;;;;18.43;46.61;103281.19;6285664;22;20389;-78
2022/03/17 13:02:46;;;;;;;;;;;;;;;18.44;46.57;103288.16;6285311;22;19907;-78